Search METAR Data

METAR Data for OJAQ:

OJAQ 241600Z 18005KT 5000 HZ NSC 34/M01 Q1006 NOSIG